Terminal Aerodrome Forecast
Issued by NWS Dallas/Fort Worth, TX

Home | Current Version | Previous Version | Text Only | Print | Product List | Glossary On
Versions: 1 2 3 4 5 6 7 8 9 10 11 12 13 14 15 16 17 18 19 20 21 22 23 24 25 26 27 28 29 30 31 32 33 34 35
000
FTUS44 KFWD 211140
TAFACT
TAF
KACT 211140Z 2112/2212 36018KT 5SM -SHRA BR BKN008 OVC012
      TEMPO 2112/2116 2SM SHRA OVC007
     FM211800 35015KT 5SM -SHRA BR VCTS OVC007CB
     FM220000 35019KT 4SM -RA BR OVC007
     FM221000 35008KT 4SM BR OVC004=

USA.gov is the U.S. government's official web portal to all federal, state and local government web resources and services.